Airfield :
LOGIN :

Register | Disclaimer

   EN    FR    IT 

 










Legend :    VFR   Marginal VFR   IFR   Intensive IFR   Very Intensive IFR
Visi :
Ceiling :
>= 8 km
>= 3000ft
5 to 8 km
1000 to 3000 ft
1500m to 5 km
500 to 1000 ft
800 to 1500m
200 to 500 ft
< 800m
< 200 ft
Symbols :   Thunderstorms  Fog  Heavy snow  Heavy precipitations  Wind > 20 kt
SIGMETs :     Misc.  Thunderstorms  Icing  Turbulence  Mountain Waves  Volcanic Ashes






- Airport Elevation : 157 ft


LESB - Son Bonet

CURRENT METAR :
  • 130600Z AUTO 08005KT CAVOK 25/16 Q1019

EXPIRED METARs :
  • 130530Z AUTO 10003KT 070V140 CAVOK 25/13 Q1018
  • 130500Z AUTO 36003KT CAVOK 24/14 Q1018
  • 130430Z AUTO 36007KT 330V040 CAVOK 24/13 Q1017
  • 130400Z AUTO 02005KT CAVOK 24/13 Q1017
  • 130330Z AUTO 02005KT CAVOK 24/13 Q1017

TAF N/A



MET'MAP, your aeronautical weather chart ! - Copyright ORBIFLY December 2007 - Disclaimer

ORBIFLY MET'MAP TEAM :

Programming & Development : Alexandra Zaïnal
Concept & original design : Baudouin d'Aumeries
Assistance for programming : Marc-Olivier Méhu
Technical & hardware support : Manuel Goepfert

Contact : metmap@orbifly.com




SOURCES & CREDITS :

   NOAA